sensor_id;sensor_type;location;lat;lon;timestamp;P1;durP1;ratioP1;P2;durP2;ratioP2
78228;SDS011;74448;49.082;9.152;2024-01-27T00:00:41;13.68;;;3.70;;
78228;SDS011;74448;49.082;9.152;2024-01-27T00:03:08;13.15;;;3.78;;
78228;SDS011;74448;49.082;9.152;2024-01-27T00:08:01;10.32;;;2.92;;
78228;SDS011;74448;49.082;9.152;2024-01-27T00:10:27;10.52;;;3.10;;
78228;SDS011;74448;49.082;9.152;2024-01-27T00:12:54;12.13;;;3.03;;
78228;SDS011;74448;49.082;9.152;2024-01-27T00:15:21;12.70;;;3.45;;
78228;SDS011;74448;49.082;9.152;2024-01-27T00:20:14;12.20;;;2.90;;
78228;SDS011;74448;49.082;9.152;2024-01-27T00:22:41;16.83;;;3.50;;
78228;SDS011;74448;49.082;9.152;2024-01-27T00:25:08;14.63;;;3.55;;
78228;SDS011;74448;49.082;9.152;2024-01-27T00:30:01;6.50;;;3.00;;
78228;SDS011;74448;49.082;9.152;2024-01-27T00:32:27;19.25;;;4.15;;
78228;SDS011;74448;49.082;9.152;2024-01-27T00:34:54;10.75;;;2.92;;
78228;SDS011;74448;49.082;9.152;2024-01-27T00:37:20;11.45;;;3.40;;
78228;SDS011;74448;49.082;9.152;2024-01-27T00:39:47;8.77;;;3.00;;
78228;SDS011;74448;49.082;9.152;2024-01-27T00:42:13;12.93;;;3.55;;
78228;SDS011;74448;49.082;9.152;2024-01-27T00:44:40;11.40;;;2.72;;
78228;SDS011;74448;49.082;9.152;2024-01-27T00:47:07;11.43;;;3.03;;
78228;SDS011;74448;49.082;9.152;2024-01-27T00:49:33;14.13;;;3.20;;
78228;SDS011;74448;49.082;9.152;2024-01-27T00:54:26;10.07;;;3.20;;
78228;SDS011;74448;49.082;9.152;2024-01-27T00:56:53;10.30;;;4.40;;
78228;SDS011;74448;49.082;9.152;2024-01-27T00:59:20;10.25;;;4.05;;
78228;SDS011;74448;49.082;9.152;2024-01-27T01:01:46;11.48;;;3.38;;
78228;SDS011;74448;49.082;9.152;2024-01-27T01:04:14;6.60;;;3.28;;
78228;SDS011;74448;49.082;9.152;2024-01-27T01:06:40;13.65;;;3.03;;
78228;SDS011;74448;49.082;9.152;2024-01-27T01:11:35;10.65;;;3.38;;
78228;SDS011;74448;49.082;9.152;2024-01-27T01:14:05;11.07;;;3.38;;
78228;SDS011;74448;49.082;9.152;2024-01-27T01:16:32;8.32;;;2.90;;
78228;SDS011;74448;49.082;9.152;2024-01-27T01:21:25;7.93;;;3.40;;
78228;SDS011;74448;49.082;9.152;2024-01-27T01:23:53;7.97;;;2.55;;
78228;SDS011;74448;49.082;9.152;2024-01-27T01:26:19;9.95;;;3.25;;
78228;SDS011;74448;49.082;9.152;2024-01-27T01:28:46;13.32;;;2.95;;
78228;SDS011;74448;49.082;9.152;2024-01-27T01:31:12;11.88;;;3.08;;
78228;SDS011;74448;49.082;9.152;2024-01-27T01:33:39;8.55;;;3.05;;
78228;SDS011;74448;49.082;9.152;2024-01-27T01:38:32;10.90;;;3.55;;
78228;SDS011;74448;49.082;9.152;2024-01-27T01:40:59;8.57;;;2.58;;
78228;SDS011;74448;49.082;9.152;2024-01-27T01:43:25;8.57;;;3.03;;
78228;SDS011;74448;49.082;9.152;2024-01-27T01:45:52;6.18;;;3.03;;
78228;SDS011;74448;49.082;9.152;2024-01-27T01:48:22;10.57;;;3.42;;
78228;SDS011;74448;49.082;9.152;2024-01-27T01:53:16;8.77;;;2.90;;
78228;SDS011;74448;49.082;9.152;2024-01-27T01:55:42;9.40;;;2.78;;
78228;SDS011;74448;49.082;9.152;2024-01-27T01:58:09;9.65;;;3.05;;
78228;SDS011;74448;49.082;9.152;2024-01-27T02:00:35;6.65;;;2.67;;
78228;SDS011;74448;49.082;9.152;2024-01-27T02:03:02;9.32;;;3.47;;
78228;SDS011;74448;49.082;9.152;2024-01-27T02:05:31;8.60;;;3.28;;
78228;SDS011;74448;49.082;9.152;2024-01-27T02:07:58;6.97;;;2.55;;
78228;SDS011;74448;49.082;9.152;2024-01-27T02:10:26;5.55;;;2.42;;
78228;SDS011;74448;49.082;9.152;2024-01-27T02:12:52;11.18;;;3.05;;
78228;SDS011;74448;49.082;9.152;2024-01-27T02:15:19;10.30;;;3.10;;
78228;SDS011;74448;49.082;9.152;2024-01-27T02:17:48;12.07;;;3.22;;
78228;SDS011;74448;49.082;9.152;2024-01-27T02:20:14;8.35;;;2.38;;
78228;SDS011;74448;49.082;9.152;2024-01-27T02:22:41;4.68;;;2.67;;
78228;SDS011;74448;49.082;9.152;2024-01-27T02:25:08;8.90;;;2.88;;
78228;SDS011;74448;49.082;9.152;2024-01-27T02:30:01;9.98;;;3.42;;
78228;SDS011;74448;49.082;9.152;2024-01-27T02:32:28;8.20;;;2.92;;
78228;SDS011;74448;49.082;9.152;2024-01-27T02:34:54;7.10;;;3.38;;
78228;SDS011;74448;49.082;9.152;2024-01-27T02:37:21;8.70;;;2.88;;
78228;SDS011;74448;49.082;9.152;2024-01-27T02:39:48;6.78;;;3.15;;
78228;SDS011;74448;49.082;9.152;2024-01-27T02:42:14;7.20;;;3.03;;
78228;SDS011;74448;49.082;9.152;2024-01-27T02:44:41;5.80;;;2.50;;
78228;SDS011;74448;49.082;9.152;2024-01-27T02:47:07;7.82;;;3.08;;
78228;SDS011;74448;49.082;9.152;2024-01-27T02:49:34;6.15;;;2.83;;
78228;SDS011;74448;49.082;9.152;2024-01-27T02:52:01;8.00;;;2.55;;
78228;SDS011;74448;49.082;9.152;2024-01-27T02:54:28;6.63;;;3.00;;
78228;SDS011;74448;49.082;9.152;2024-01-27T02:56:54;6.85;;;3.10;;
78228;SDS011;74448;49.082;9.152;2024-01-27T02:59:21;10.80;;;2.88;;
78228;SDS011;74448;49.082;9.152;2024-01-27T03:01:48;6.97;;;1.98;;
78228;SDS011;74448;49.082;9.152;2024-01-27T03:04:14;6.10;;;2.40;;
78228;SDS011;74448;49.082;9.152;2024-01-27T03:06:41;7.40;;;2.83;;
78228;SDS011;74448;49.082;9.152;2024-01-27T03:09:07;8.82;;;2.75;;
78228;SDS011;74448;49.082;9.152;2024-01-27T03:11:34;8.10;;;2.53;;
78228;SDS011;74448;49.082;9.152;2024-01-27T03:14:01;8.55;;;2.83;;
78228;SDS011;74448;49.082;9.152;2024-01-27T03:16:27;10.80;;;2.70;;
78228;SDS011;74448;49.082;9.152;2024-01-27T03:18:54;6.57;;;2.35;;
78228;SDS011;74448;49.082;9.152;2024-01-27T03:21:21;8.82;;;2.30;;
78228;SDS011;74448;49.082;9.152;2024-01-27T03:23:47;6.68;;;2.55;;
78228;SDS011;74448;49.082;9.152;2024-01-27T03:26:14;7.50;;;2.08;;
78228;SDS011;74448;49.082;9.152;2024-01-27T03:31:07;5.68;;;2.33;;
78228;SDS011;74448;49.082;9.152;2024-01-27T03:33:34;9.98;;;2.95;;
78228;SDS011;74448;49.082;9.152;2024-01-27T03:36:00;6.55;;;3.20;;
78228;SDS011;74448;49.082;9.152;2024-01-27T03:38:27;6.32;;;2.75;;
78228;SDS011;74448;49.082;9.152;2024-01-27T03:40:54;6.68;;;3.25;;
78228;SDS011;74448;49.082;9.152;2024-01-27T03:43:20;6.28;;;2.45;;
78228;SDS011;74448;49.082;9.152;2024-01-27T03:45:47;9.52;;;2.92;;
78228;SDS011;74448;49.082;9.152;2024-01-27T03:48:13;4.80;;;2.60;;
78228;SDS011;74448;49.082;9.152;2024-01-27T03:50:40;6.00;;;2.47;;
78228;SDS011;74448;49.082;9.152;2024-01-27T03:53:06;6.25;;;2.92;;
78228;SDS011;74448;49.082;9.152;2024-01-27T03:55:33;8.45;;;3.20;;
78228;SDS011;74448;49.082;9.152;2024-01-27T03:58:00;6.05;;;2.40;;
78228;SDS011;74448;49.082;9.152;2024-01-27T04:00:27;5.28;;;2.15;;
78228;SDS011;74448;49.082;9.152;2024-01-27T04:02:56;5.43;;;2.50;;
78228;SDS011;74448;49.082;9.152;2024-01-27T04:05:22;6.63;;;2.20;;
78228;SDS011;74448;49.082;9.152;2024-01-27T04:07:49;5.93;;;2.67;;
78228;SDS011;74448;49.082;9.152;2024-01-27T04:10:17;6.03;;;2.67;;
78228;SDS011;74448;49.082;9.152;2024-01-27T04:12:45;10.40;;;2.90;;
78228;SDS011;74448;49.082;9.152;2024-01-27T04:15:11;4.53;;;2.30;;
78228;SDS011;74448;49.082;9.152;2024-01-27T04:17:38;9.02;;;2.60;;
78228;SDS011;74448;49.082;9.152;2024-01-27T04:20:06;9.20;;;2.58;;
78228;SDS011;74448;49.082;9.152;2024-01-27T04:22:34;6.00;;;2.10;;
78228;SDS011;74448;49.082;9.152;2024-01-27T04:25:01;5.78;;;2.45;;
78228;SDS011;74448;49.082;9.152;2024-01-27T04:27:28;4.75;;;2.28;;
78228;SDS011;74448;49.082;9.152;2024-01-27T04:29:55;8.85;;;2.90;;
78228;SDS011;74448;49.082;9.152;2024-01-27T04:32:23;6.63;;;2.25;;
78228;SDS011;74448;49.082;9.152;2024-01-27T04:34:50;7.53;;;2.72;;
78228;SDS011;74448;49.082;9.152;2024-01-27T04:37:16;9.23;;;2.88;;
78228;SDS011;74448;49.082;9.152;2024-01-27T04:39:43;6.43;;;2.40;;
78228;SDS011;74448;49.082;9.152;2024-01-27T04:42:09;6.35;;;2.67;;
78228;SDS011;74448;49.082;9.152;2024-01-27T04:44:39;9.50;;;2.70;;
78228;SDS011;74448;49.082;9.152;2024-01-27T04:47:07;5.90;;;2.83;;
78228;SDS011;74448;49.082;9.152;2024-01-27T04:49:34;6.55;;;2.92;;
78228;SDS011;74448;49.082;9.152;2024-01-27T04:54:28;4.80;;;2.15;;
78228;SDS011;74448;49.082;9.152;2024-01-27T04:56:54;5.57;;;2.42;;
78228;SDS011;74448;49.082;9.152;2024-01-27T04:59:21;5.75;;;2.58;;
78228;SDS011;74448;49.082;9.152;2024-01-27T05:01:48;4.60;;;2.15;;
78228;SDS011;74448;49.082;9.152;2024-01-27T05:04:14;7.28;;;2.03;;
78228;SDS011;74448;49.082;9.152;2024-01-27T05:09:14;6.10;;;2.03;;
78228;SDS011;74448;49.082;9.152;2024-01-27T05:11:42;7.32;;;2.53;;
78228;SDS011;74448;49.082;9.152;2024-01-27T05:14:11;3.88;;;2.10;;
78228;SDS011;74448;49.082;9.152;2024-01-27T05:16:38;5.45;;;2.50;;
78228;SDS011;74448;49.082;9.152;2024-01-27T05:21:31;5.03;;;1.88;;
78228;SDS011;74448;49.082;9.152;2024-01-27T05:23:58;7.28;;;2.45;;
78228;SDS011;74448;49.082;9.152;2024-01-27T05:26:24;9.73;;;2.40;;
78228;SDS011;74448;49.082;9.152;2024-01-27T05:28:51;4.55;;;2.25;;
78228;SDS011;74448;49.082;9.152;2024-01-27T05:31:18;5.13;;;2.90;;
78228;SDS011;74448;49.082;9.152;2024-01-27T05:33:44;4.95;;;2.20;;
78228;SDS011;74448;49.082;9.152;2024-01-27T05:36:11;6.43;;;2.88;;
78228;SDS011;74448;49.082;9.152;2024-01-27T05:38:37;5.88;;;2.17;;
78228;SDS011;74448;49.082;9.152;2024-01-27T05:41:04;6.32;;;2.35;;
78228;SDS011;74448;49.082;9.152;2024-01-27T05:43:30;5.05;;;2.83;;
78228;SDS011;74448;49.082;9.152;2024-01-27T05:45:57;7.97;;;3.78;;
78228;SDS011;74448;49.082;9.152;2024-01-27T05:48:24;5.75;;;2.30;;
78228;SDS011;74448;49.082;9.152;2024-01-27T05:50:57;5.30;;;2.10;;
78228;SDS011;74448;49.082;9.152;2024-01-27T05:53:25;10.30;;;3.28;;
78228;SDS011;74448;49.082;9.152;2024-01-27T05:55:53;8.60;;;2.33;;
78228;SDS011;74448;49.082;9.152;2024-01-27T05:58:20;7.15;;;2.83;;
78228;SDS011;74448;49.082;9.152;2024-01-27T06:00:49;6.65;;;2.42;;
78228;SDS011;74448;49.082;9.152;2024-01-27T06:05:43;5.75;;;2.63;;
78228;SDS011;74448;49.082;9.152;2024-01-27T06:08:10;6.00;;;2.58;;
78228;SDS011;74448;49.082;9.152;2024-01-27T06:10:37;4.78;;;2.50;;
78228;SDS011;74448;49.082;9.152;2024-01-27T06:13:04;7.30;;;2.60;;
78228;SDS011;74448;49.082;9.152;2024-01-27T06:15:31;3.78;;;1.85;;
78228;SDS011;74448;49.082;9.152;2024-01-27T06:17:58;5.95;;;2.47;;
78228;SDS011;74448;49.082;9.152;2024-01-27T06:20:25;6.28;;;2.88;;
78228;SDS011;74448;49.082;9.152;2024-01-27T06:22:52;7.18;;;2.85;;
78228;SDS011;74448;49.082;9.152;2024-01-27T06:25:20;4.43;;;1.92;;
78228;SDS011;74448;49.082;9.152;2024-01-27T06:27:47;5.15;;;2.65;;
78228;SDS011;74448;49.082;9.152;2024-01-27T06:30:13;7.78;;;2.33;;
78228;SDS011;74448;49.082;9.152;2024-01-27T06:32:41;7.43;;;2.60;;
78228;SDS011;74448;49.082;9.152;2024-01-27T06:35:08;7.55;;;3.10;;
78228;SDS011;74448;49.082;9.152;2024-01-27T06:37:35;5.05;;;2.58;;
78228;SDS011;74448;49.082;9.152;2024-01-27T06:40:02;6.65;;;2.95;;
78228;SDS011;74448;49.082;9.152;2024-01-27T06:42:29;6.00;;;2.28;;
78228;SDS011;74448;49.082;9.152;2024-01-27T06:44:57;5.18;;;2.45;;
78228;SDS011;74448;49.082;9.152;2024-01-27T06:47:23;3.05;;;2.00;;
78228;SDS011;74448;49.082;9.152;2024-01-27T06:49:50;6.68;;;2.80;;
78228;SDS011;74448;49.082;9.152;2024-01-27T06:54:43;5.72;;;2.30;;
78228;SDS011;74448;49.082;9.152;2024-01-27T06:59:50;4.70;;;2.30;;
78228;SDS011;74448;49.082;9.152;2024-01-27T07:02:25;5.03;;;2.75;;
78228;SDS011;74448;49.082;9.152;2024-01-27T07:04:55;7.18;;;3.40;;
78228;SDS011;74448;49.082;9.152;2024-01-27T07:07:22;4.22;;;2.40;;
78228;SDS011;74448;49.082;9.152;2024-01-27T07:09:52;5.20;;;2.50;;
78228;SDS011;74448;49.082;9.152;2024-01-27T07:12:19;5.13;;;2.55;;
78228;SDS011;74448;49.082;9.152;2024-01-27T07:14:45;7.32;;;2.58;;
78228;SDS011;74448;49.082;9.152;2024-01-27T07:17:12;6.28;;;2.72;;
78228;SDS011;74448;49.082;9.152;2024-01-27T07:19:39;6.03;;;2.75;;
78228;SDS011;74448;49.082;9.152;2024-01-27T07:24:32;4.38;;;2.28;;
78228;SDS011;74448;49.082;9.152;2024-01-27T07:27:01;3.47;;;2.25;;
78228;SDS011;74448;49.082;9.152;2024-01-27T07:29:28;5.68;;;2.42;;
78228;SDS011;74448;49.082;9.152;2024-01-27T07:31:55;3.80;;;2.22;;
78228;SDS011;74448;49.082;9.152;2024-01-27T07:34:22;4.75;;;2.40;;
78228;SDS011;74448;49.082;9.152;2024-01-27T07:36:49;4.50;;;2.45;;
78228;SDS011;74448;49.082;9.152;2024-01-27T07:39:15;5.72;;;2.80;;
78228;SDS011;74448;49.082;9.152;2024-01-27T07:44:09;5.40;;;2.15;;
78228;SDS011;74448;49.082;9.152;2024-01-27T07:46:37;6.05;;;2.67;;
78228;SDS011;74448;49.082;9.152;2024-01-27T07:49:07;4.65;;;2.40;;
78228;SDS011;74448;49.082;9.152;2024-01-27T07:51:35;7.90;;;2.83;;
78228;SDS011;74448;49.082;9.152;2024-01-27T07:54:01;6.05;;;2.67;;
78228;SDS011;74448;49.082;9.152;2024-01-27T07:56:28;3.25;;;2.03;;
78228;SDS011;74448;49.082;9.152;2024-01-27T07:58:55;7.75;;;2.53;;
78228;SDS011;74448;49.082;9.152;2024-01-27T08:01:22;5.75;;;2.85;;
78228;SDS011;74448;49.082;9.152;2024-01-27T08:03:48;4.60;;;2.72;;
78228;SDS011;74448;49.082;9.152;2024-01-27T08:06:16;4.45;;;2.30;;
78228;SDS011;74448;49.082;9.152;2024-01-27T08:08:45;8.35;;;3.20;;
78228;SDS011;74448;49.082;9.152;2024-01-27T08:11:13;6.18;;;3.03;;
78228;SDS011;74448;49.082;9.152;2024-01-27T08:13:41;6.13;;;2.42;;
78228;SDS011;74448;49.082;9.152;2024-01-27T08:16:08;6.03;;;2.88;;
78228;SDS011;74448;49.082;9.152;2024-01-27T08:18:39;4.82;;;2.50;;
78228;SDS011;74448;49.082;9.152;2024-01-27T08:21:08;4.80;;;2.65;;
78228;SDS011;74448;49.082;9.152;2024-01-27T08:23:35;4.72;;;2.38;;
78228;SDS011;74448;49.082;9.152;2024-01-27T08:26:02;6.47;;;3.00;;
78228;SDS011;74448;49.082;9.152;2024-01-27T08:30:56;4.65;;;2.80;;
78228;SDS011;74448;49.082;9.152;2024-01-27T08:33:22;5.32;;;2.20;;
78228;SDS011;74448;49.082;9.152;2024-01-27T08:35:49;4.50;;;2.60;;
78228;SDS011;74448;49.082;9.152;2024-01-27T08:38:16;5.07;;;2.80;;
78228;SDS011;74448;49.082;9.152;2024-01-27T08:40:42;6.85;;;2.70;;
78228;SDS011;74448;49.082;9.152;2024-01-27T08:43:09;5.20;;;2.88;;
78228;SDS011;74448;49.082;9.152;2024-01-27T08:45:38;4.22;;;2.42;;
78228;SDS011;74448;49.082;9.152;2024-01-27T08:48:06;6.97;;;3.35;;
78228;SDS011;74448;49.082;9.152;2024-01-27T08:50:33;5.03;;;2.88;;
78228;SDS011;74448;49.082;9.152;2024-01-27T08:55:27;5.10;;;2.38;;
78228;SDS011;74448;49.082;9.152;2024-01-27T09:00:21;4.13;;;2.33;;
78228;SDS011;74448;49.082;9.152;2024-01-27T09:02:47;4.78;;;2.63;;
78228;SDS011;74448;49.082;9.152;2024-01-27T09:05:14;4.68;;;2.53;;
78228;SDS011;74448;49.082;9.152;2024-01-27T09:07:41;4.07;;;2.47;;
78228;SDS011;74448;49.082;9.152;2024-01-27T09:10:08;4.80;;;2.63;;
78228;SDS011;74448;49.082;9.152;2024-01-27T09:12:35;6.22;;;2.83;;
78228;SDS011;74448;49.082;9.152;2024-01-27T09:15:02;5.75;;;2.72;;
78228;SDS011;74448;49.082;9.152;2024-01-27T09:17:29;3.95;;;2.50;;
78228;SDS011;74448;49.082;9.152;2024-01-27T09:19:56;4.50;;;2.70;;
78228;SDS011;74448;49.082;9.152;2024-01-27T09:22:22;6.53;;;2.55;;
78228;SDS011;74448;49.082;9.152;2024-01-27T09:24:50;9.40;;;2.50;;
78228;SDS011;74448;49.082;9.152;2024-01-27T09:27:18;4.28;;;2.38;;
78228;SDS011;74448;49.082;9.152;2024-01-27T09:29:44;6.50;;;2.80;;
78228;SDS011;74448;49.082;9.152;2024-01-27T09:32:11;7.15;;;2.78;;
78228;SDS011;74448;49.082;9.152;2024-01-27T09:34:38;5.15;;;2.53;;
78228;SDS011;74448;49.082;9.152;2024-01-27T09:39:31;6.93;;;3.10;;
78228;SDS011;74448;49.082;9.152;2024-01-27T09:41:59;4.55;;;2.50;;
78228;SDS011;74448;49.082;9.152;2024-01-27T09:44:30;6.43;;;2.65;;
78228;SDS011;74448;49.082;9.152;2024-01-27T09:46:58;6.38;;;3.25;;
78228;SDS011;74448;49.082;9.152;2024-01-27T09:49:25;6.82;;;3.10;;
78228;SDS011;74448;49.082;9.152;2024-01-27T09:51:53;4.53;;;2.22;;
78228;SDS011;74448;49.082;9.152;2024-01-27T09:54:21;5.25;;;2.05;;
78228;SDS011;74448;49.082;9.152;2024-01-27T09:56:47;7.10;;;2.80;;
78228;SDS011;74448;49.082;9.152;2024-01-27T09:59:15;3.97;;;2.28;;
78228;SDS011;74448;49.082;9.152;2024-01-27T10:01:44;5.68;;;2.30;;
78228;SDS011;74448;49.082;9.152;2024-01-27T10:04:11;5.95;;;2.83;;
78228;SDS011;74448;49.082;9.152;2024-01-27T10:06:40;4.35;;;1.88;;
78228;SDS011;74448;49.082;9.152;2024-01-27T10:09:07;4.45;;;2.53;;
78228;SDS011;74448;49.082;9.152;2024-01-27T10:11:34;5.03;;;2.58;;
78228;SDS011;74448;49.082;9.152;2024-01-27T10:14:03;4.30;;;2.53;;
78228;SDS011;74448;49.082;9.152;2024-01-27T10:16:39;4.97;;;2.33;;
78228;SDS011;74448;49.082;9.152;2024-01-27T10:19:11;6.80;;;2.42;;
78228;SDS011;74448;49.082;9.152;2024-01-27T10:21:41;5.70;;;2.45;;
78228;SDS011;74448;49.082;9.152;2024-01-27T10:24:07;6.10;;;2.90;;
78228;SDS011;74448;49.082;9.152;2024-01-27T10:26:34;6.07;;;3.05;;
78228;SDS011;74448;49.082;9.152;2024-01-27T10:31:28;5.03;;;3.33;;
78228;SDS011;74448;49.082;9.152;2024-01-27T10:33:56;6.28;;;2.30;;
78228;SDS011;74448;49.082;9.152;2024-01-27T10:36:24;4.35;;;2.33;;
78228;SDS011;74448;49.082;9.152;2024-01-27T10:38:54;3.10;;;2.15;;
78228;SDS011;74448;49.082;9.152;2024-01-27T10:41:22;4.35;;;2.25;;
78228;SDS011;74448;49.082;9.152;2024-01-27T10:43:53;4.88;;;2.25;;
78228;SDS011;74448;49.082;9.152;2024-01-27T10:46:22;3.88;;;2.60;;
78228;SDS011;74448;49.082;9.152;2024-01-27T10:48:50;4.47;;;2.30;;
78228;SDS011;74448;49.082;9.152;2024-01-27T10:51:28;6.40;;;2.60;;
78228;SDS011;74448;49.082;9.152;2024-01-27T10:54:03;6.60;;;2.35;;
78228;SDS011;74448;49.082;9.152;2024-01-27T10:56:31;4.55;;;2.70;;
78228;SDS011;74448;49.082;9.152;2024-01-27T10:58:59;4.30;;;2.55;;
78228;SDS011;74448;49.082;9.152;2024-01-27T11:03:54;3.70;;;2.17;;
78228;SDS011;74448;49.082;9.152;2024-01-27T11:06:22;3.88;;;2.17;;
78228;SDS011;74448;49.082;9.152;2024-01-27T11:08:49;4.68;;;2.30;;
78228;SDS011;74448;49.082;9.152;2024-01-27T11:11:17;4.57;;;2.35;;
78228;SDS011;74448;49.082;9.152;2024-01-27T11:13:44;4.97;;;2.33;;
78228;SDS011;74448;49.082;9.152;2024-01-27T11:16:15;3.92;;;2.30;;
78228;SDS011;74448;49.082;9.152;2024-01-27T11:18:44;3.47;;;2.30;;
78228;SDS011;74448;49.082;9.152;2024-01-27T11:21:14;4.85;;;2.35;;
78228;SDS011;74448;49.082;9.152;2024-01-27T11:23:45;5.97;;;2.03;;
78228;SDS011;74448;49.082;9.152;2024-01-27T11:26:20;4.35;;;3.03;;
78228;SDS011;74448;49.082;9.152;2024-01-27T11:28:48;4.95;;;2.60;;
78228;SDS011;74448;49.082;9.152;2024-01-27T11:31:17;6.13;;;2.67;;
78228;SDS011;74448;49.082;9.152;2024-01-27T11:33:48;5.97;;;2.50;;
78228;SDS011;74448;49.082;9.152;2024-01-27T11:36:20;4.82;;;2.90;;
78228;SDS011;74448;49.082;9.152;2024-01-27T11:38:50;5.28;;;2.45;;
78228;SDS011;74448;49.082;9.152;2024-01-27T11:41:27;4.78;;;2.05;;
78228;SDS011;74448;49.082;9.152;2024-01-27T11:43:56;4.28;;;2.50;;
78228;SDS011;74448;49.082;9.152;2024-01-27T11:46:24;3.50;;;2.05;;
78228;SDS011;74448;49.082;9.152;2024-01-27T11:48:51;5.75;;;2.35;;
78228;SDS011;74448;49.082;9.152;2024-01-27T11:53:46;4.40;;;2.38;;
78228;SDS011;74448;49.082;9.152;2024-01-27T11:58:45;3.60;;;2.17;;
78228;SDS011;74448;49.082;9.152;2024-01-27T12:01:14;4.35;;;2.17;;
78228;SDS011;74448;49.082;9.152;2024-01-27T12:03:41;6.88;;;3.35;;
78228;SDS011;74448;49.082;9.152;2024-01-27T12:06:11;4.47;;;1.55;;
78228;SDS011;74448;49.082;9.152;2024-01-27T12:08:42;5.65;;;2.28;;
78228;SDS011;74448;49.082;9.152;2024-01-27T12:11:15;4.80;;;2.20;;
78228;SDS011;74448;49.082;9.152;2024-01-27T12:13:48;4.40;;;2.03;;
78228;SDS011;74448;49.082;9.152;2024-01-27T12:16:15;5.65;;;2.42;;
78228;SDS011;74448;49.082;9.152;2024-01-27T12:18:43;5.55;;;2.58;;
78228;SDS011;74448;49.082;9.152;2024-01-27T12:21:11;6.32;;;2.60;;
78228;SDS011;74448;49.082;9.152;2024-01-27T12:23:49;4.05;;;2.35;;
78228;SDS011;74448;49.082;9.152;2024-01-27T12:26:16;8.48;;;3.45;;
78228;SDS011;74448;49.082;9.152;2024-01-27T12:28:45;6.10;;;3.42;;
78228;SDS011;74448;49.082;9.152;2024-01-27T12:31:13;19.27;;;4.15;;
78228;SDS011;74448;49.082;9.152;2024-01-27T12:33:52;19.67;;;3.95;;
78228;SDS011;74448;49.082;9.152;2024-01-27T12:36:21;13.38;;;3.85;;
78228;SDS011;74448;49.082;9.152;2024-01-27T12:41:24;114.70;;;37.20;;
78228;SDS011;74448;49.082;9.152;2024-01-27T12:43:51;78.95;;;30.77;;
78228;SDS011;74448;49.082;9.152;2024-01-27T12:46:18;59.53;;;27.42;;
78228;SDS011;74448;49.082;9.152;2024-01-27T12:48:45;82.95;;;28.60;;
78228;SDS011;74448;49.082;9.152;2024-01-27T12:51:12;74.13;;;27.23;;
78228;SDS011;74448;49.082;9.152;2024-01-27T12:53:40;80.20;;;22.90;;
78228;SDS011;74448;49.082;9.152;2024-01-27T12:56:13;74.28;;;25.77;;
78228;SDS011;74448;49.082;9.152;2024-01-27T12:58:41;89.45;;;27.88;;
78228;SDS011;74448;49.082;9.152;2024-01-27T13:01:08;57.60;;;22.60;;
78228;SDS011;74448;49.082;9.152;2024-01-27T13:06:03;88.22;;;34.05;;
78228;SDS011;74448;49.082;9.152;2024-01-27T13:08:30;163.70;;;60.63;;
78228;SDS011;74448;49.082;9.152;2024-01-27T13:10:57;116.97;;;42.00;;
78228;SDS011;74448;49.082;9.152;2024-01-27T13:13:24;99.32;;;39.92;;
78228;SDS011;74448;49.082;9.152;2024-01-27T13:15:50;97.72;;;35.55;;
78228;SDS011;74448;49.082;9.152;2024-01-27T13:18:17;80.80;;;33.10;;
78228;SDS011;74448;49.082;9.152;2024-01-27T13:23:10;59.35;;;25.52;;
78228;SDS011;74448;49.082;9.152;2024-01-27T13:25:37;53.80;;;21.33;;
78228;SDS011;74448;49.082;9.152;2024-01-27T13:28:04;62.03;;;21.50;;
78228;SDS011;74448;49.082;9.152;2024-01-27T13:30:33;58.30;;;21.70;;
78228;SDS011;74448;49.082;9.152;2024-01-27T13:33:00;53.40;;;20.98;;
78228;SDS011;74448;49.082;9.152;2024-01-27T13:35:27;41.47;;;22.08;;
78228;SDS011;74448;49.082;9.152;2024-01-27T13:37:53;53.28;;;21.65;;
78228;SDS011;74448;49.082;9.152;2024-01-27T13:40:20;66.53;;;21.55;;
78228;SDS011;74448;49.082;9.152;2024-01-27T13:42:48;54.10;;;20.95;;
78228;SDS011;74448;49.082;9.152;2024-01-27T13:47:41;47.90;;;20.77;;
78228;SDS011;74448;49.082;9.152;2024-01-27T13:50:08;40.83;;;19.35;;
78228;SDS011;74448;49.082;9.152;2024-01-27T13:52:35;46.72;;;18.73;;
78228;SDS011;74448;49.082;9.152;2024-01-27T13:55:02;49.92;;;20.08;;
78228;SDS011;74448;49.082;9.152;2024-01-27T13:57:29;47.33;;;21.15;;
78228;SDS011;74448;49.082;9.152;2024-01-27T13:59:56;46.78;;;20.48;;
78228;SDS011;74448;49.082;9.152;2024-01-27T14:04:51;49.30;;;19.60;;
78228;SDS011;74448;49.082;9.152;2024-01-27T14:07:18;52.40;;;20.98;;
78228;SDS011;74448;49.082;9.152;2024-01-27T14:09:45;42.22;;;19.52;;
78228;SDS011;74448;49.082;9.152;2024-01-27T14:12:14;42.33;;;18.58;;
78228;SDS011;74448;49.082;9.152;2024-01-27T14:14:41;39.40;;;17.67;;
78228;SDS011;74448;49.082;9.152;2024-01-27T14:17:08;37.17;;;19.67;;
78228;SDS011;74448;49.082;9.152;2024-01-27T14:22:02;38.60;;;17.25;;
78228;SDS011;74448;49.082;9.152;2024-01-27T14:24:29;34.67;;;18.70;;
78228;SDS011;74448;49.082;9.152;2024-01-27T14:26:56;40.55;;;18.92;;
78228;SDS011;74448;49.082;9.152;2024-01-27T14:29:22;39.58;;;17.50;;
78228;SDS011;74448;49.082;9.152;2024-01-27T14:31:49;51.63;;;17.10;;
78228;SDS011;74448;49.082;9.152;2024-01-27T14:34:16;42.92;;;15.57;;
78228;SDS011;74448;49.082;9.152;2024-01-27T14:39:10;46.22;;;18.95;;
78228;SDS011;74448;49.082;9.152;2024-01-27T14:41:37;34.15;;;17.02;;
78228;SDS011;74448;49.082;9.152;2024-01-27T14:46:30;38.90;;;14.90;;
78228;SDS011;74448;49.082;9.152;2024-01-27T14:48:57;34.80;;;15.68;;
78228;SDS011;74448;49.082;9.152;2024-01-27T14:51:24;41.92;;;16.77;;
78228;SDS011;74448;49.082;9.152;2024-01-27T14:56:17;37.28;;;16.35;;
78228;SDS011;74448;49.082;9.152;2024-01-27T14:58:44;31.90;;;15.63;;
78228;SDS011;74448;49.082;9.152;2024-01-27T15:01:12;30.20;;;16.02;;
78228;SDS011;74448;49.082;9.152;2024-01-27T15:03:40;27.92;;;14.00;;
78228;SDS011;74448;49.082;9.152;2024-01-27T15:06:07;37.40;;;17.13;;
78228;SDS011;74448;49.082;9.152;2024-01-27T15:08:34;38.70;;;16.58;;
78228;SDS011;74448;49.082;9.152;2024-01-27T15:11:00;33.72;;;14.60;;
78228;SDS011;74448;49.082;9.152;2024-01-27T15:13:28;25.73;;;15.73;;
78228;SDS011;74448;49.082;9.152;2024-01-27T15:15:54;34.58;;;14.43;;
78228;SDS011;74448;49.082;9.152;2024-01-27T15:20:49;28.92;;;13.73;;
78228;SDS011;74448;49.082;9.152;2024-01-27T15:23:16;32.30;;;15.07;;
78228;SDS011;74448;49.082;9.152;2024-01-27T15:25:42;37.75;;;16.70;;
78228;SDS011;74448;49.082;9.152;2024-01-27T15:28:10;30.00;;;16.00;;
78228;SDS011;74448;49.082;9.152;2024-01-27T15:30:37;24.48;;;14.88;;
78228;SDS011;74448;49.082;9.152;2024-01-27T15:33:04;30.27;;;14.73;;
78228;SDS011;74448;49.082;9.152;2024-01-27T15:35:31;30.60;;;14.93;;
78228;SDS011;74448;49.082;9.152;2024-01-27T15:37:58;26.95;;;14.88;;
78228;SDS011;74448;49.082;9.152;2024-01-27T15:40:25;25.88;;;13.30;;
78228;SDS011;74448;49.082;9.152;2024-01-27T15:42:52;29.08;;;14.70;;
78228;SDS011;74448;49.082;9.152;2024-01-27T15:45:21;29.35;;;15.07;;
78228;SDS011;74448;49.082;9.152;2024-01-27T15:47:48;24.33;;;13.93;;
78228;SDS011;74448;49.082;9.152;2024-01-27T15:52:43;29.90;;;14.93;;
78228;SDS011;74448;49.082;9.152;2024-01-27T15:57:36;24.80;;;12.48;;
78228;SDS011;74448;49.082;9.152;2024-01-27T16:00:04;28.52;;;13.75;;
78228;SDS011;74448;49.082;9.152;2024-01-27T16:02:36;26.73;;;13.82;;
78228;SDS011;74448;49.082;9.152;2024-01-27T16:05:03;22.67;;;14.43;;
78228;SDS011;74448;49.082;9.152;2024-01-27T16:07:31;29.70;;;14.32;;
78228;SDS011;74448;49.082;9.152;2024-01-27T16:09:57;30.33;;;14.02;;
78228;SDS011;74448;49.082;9.152;2024-01-27T16:12:28;22.52;;;12.82;;
78228;SDS011;74448;49.082;9.152;2024-01-27T16:14:55;25.00;;;12.88;;